Time;durP1;ratioP1;P1;durP2;ratioP2;P2;SDS_P1;SDS_P2;PMS_P1;PMS_P2;Temp;Humidity;BMP_temperature;BMP_pressure;BME280_temperature;BME280_humidity;BME280_pressure;Samples;Min_cycle;Max_cycle;Signal;HPM_P1;HPM_P2
2021/01/26 02:49:30;17209.00;0.06;30.44;0.00;0.00;0.62;;;;;8.00;1.00;;;;;;2267422;61;904;-87
2021/01/26 02:52:17;30816.00;0.10;54.00;0.00;0.00;0.62;;;;;7.90;1.00;;;;;;2257117;61;1413;-88
2021/01/26 03:02:38;7157.00;0.02;13.02;0.00;0.00;0.62;;;;;6.50;1.00;;;;;;2280082;61;1272;-87
2021/01/26 03:05:18;0.00;0.00;0.62;0.00;0.00;0.62;;;;;6.20;1.00;;;;;;2277792;61;947;-89
2021/01/26 04:43:02;84859.00;0.28;147.43;0.00;0.00;0.62;;;;;4.90;1.00;;;;;;2272718;61;1296;-84
2021/01/26 04:45:43;25868.00;0.09;45.43;0.00;0.00;0.62;;;;;4.50;1.00;;;;;;2269235;61;1029;-84
2021/01/26 04:48:25;44441.00;0.15;77.57;0.00;0.00;0.62;;;;;4.00;1.00;;;;;;2269295;61;1068;-84
2021/01/26 04:50:56;56528.00;0.19;98.47;0.00;0.00;0.62;;;;;4.10;1.00;;;;;;2268864;61;977;-83
2021/01/26 05:09:00;53053.00;0.18;92.47;0.00;0.00;0.62;;;;;4.60;1.00;;;;;;2274405;61;1221;-84
2021/01/26 05:22:01;0.00;0.00;0.62;0.00;0.00;0.62;;;;;3.80;1.00;;;;;;2275048;61;1367;-84
2021/01/26 05:24:44;20338.00;0.07;35.86;0.00;0.00;0.62;;;;;3.80;1.00;;;;;;2273153;61;976;-84
2021/01/26 05:27:14;84163.00;0.28;146.23;0.00;0.00;0.62;;;;;4.00;1.00;;;;;;2264610;61;979;-84
2021/01/26 05:29:59;0.00;0.00;0.62;0.00;0.00;0.62;;;;;3.60;1.00;;;;;;2264692;61;1070;-85
2021/01/26 05:32:37;437184.00;1.46;753.74;104326.00;0.35;181.04;;;;;3.70;1.00;;;;;;2256199;61;1409;-83
2021/01/26 05:35:10;730392.00;2.43;1259.98;93876.00;0.31;163.00;;;;;4.00;1.00;;;;;;2256514;61;1026;-85
2021/01/26 05:37:39;491929.00;1.64;847.93;119230.00;0.40;206.75;;;;;3.90;1.00;;;;;;2256716;61;1026;-84
2021/01/26 05:40:28;323629.00;1.08;558.54;95758.00;0.32;166.25;;;;;3.70;1.00;;;;;;2256478;61;1912;-85
2021/01/26 05:43:10;274575.00;0.92;474.21;90622.00;0.30;157.38;;;;;3.50;1.00;;;;;;2256580;61;1348;-83
2021/01/26 05:45:45;597272.00;1.99;1029.51;117843.00;0.39;204.36;;;;;3.50;1.00;;;;;;2262305;61;1364;-85
2021/01/26 05:48:19;454818.00;1.52;784.07;13091.00;0.04;23.30;;;;;3.70;1.00;;;;;;2258105;61;1044;-83
2021/01/26 05:50:50;428416.00;1.43;738.66;0.00;0.00;0.62;;;;;3.80;1.00;;;;;;2263303;61;1140;-84
2021/01/26 05:53:24;451832.00;1.51;778.93;76345.00;0.25;132.72;;;;;3.70;1.00;;;;;;2264526;61;1467;-85
2021/01/26 05:56:10;337849.00;1.13;582.98;77997.00;0.26;135.58;;;;;4.10;1.00;;;;;;2264466;61;1031;-82
2021/01/26 06:09:01;399997.00;1.33;689.80;86119.00;0.29;149.61;;;;;4.80;1.00;;;;;;2274831;61;1174;-83
2021/01/26 06:11:32;372734.00;1.24;642.94;90724.00;0.30;157.56;;;;;5.10;1.00;;;;;;2269517;61;1131;-85
2021/01/26 06:14:16;3856.00;0.01;7.30;0.00;0.00;0.62;;;;;5.10;1.00;;;;;;2264490;61;1521;-84
2021/01/26 06:16:49;342547.00;1.14;591.05;90060.00;0.30;156.41;;;;;4.90;1.00;;;;;;2261552;61;1065;-82
2021/01/26 06:24:34;304865.00;1.02;526.28;101306.00;0.34;175.83;;;;;4.60;1.00;;;;;;2274703;61;1126;-83
2021/01/26 06:27:41;300291.00;1.00;518.42;93271.00;0.31;161.96;;;;;5.00;1.00;;;;;;2264678;61;1132;-86
2021/01/26 06:30:34;257145.00;0.86;444.24;0.00;0.00;0.62;;;;;4.90;1.00;;;;;;2258134;61;1010;-84
2021/01/26 06:33:48;71774.00;0.24;124.83;0.00;0.00;0.62;;;;;4.60;1.00;;;;;;2261241;61;1480;-85
2021/01/26 06:36:45;32681.00;0.11;57.22;0.00;0.00;0.62;;;;;4.60;1.00;;;;;;2264439;61;1001;-81
2021/01/26 06:39:38;43372.00;0.14;75.72;0.00;0.00;0.62;;;;;4.30;1.00;;;;;;2257999;61;1997;-85
2021/01/26 06:42:20;16928.00;0.06;29.95;0.00;0.00;0.62;;;;;3.90;1.00;;;;;;2252610;61;1481;-84
2021/01/26 06:45:09;57615.00;0.19;100.35;0.00;0.00;0.62;;;;;3.80;1.00;;;;;;2255609;61;1033;-83
2021/01/26 07:03:45;90124.00;0.30;156.52;0.00;0.00;0.62;;;;;3.90;1.00;;;;;;2264158;61;1454;-85
2021/01/26 07:06:41;86085.00;0.29;149.55;0.00;0.00;0.62;;;;;4.10;1.00;;;;;;2256340;61;1092;-84
2021/01/26 07:09:37;61238.00;0.20;106.62;0.00;0.00;0.62;;;;;4.60;1.00;;;;;;2236546;62;993;-86
2021/01/26 07:12:42;18590.00;0.06;32.83;0.00;0.00;0.62;;;;;5.10;1.00;;;;;;2233470;62;1458;-84
2021/01/26 07:15:52;0.00;0.00;0.62;0.00;0.00;0.62;;;;;4.80;1.00;;;;;;2224993;62;1010;-83
2021/01/26 07:29:10;8174.00;0.03;14.79;0.00;0.00;0.62;;;;;3.70;1.00;;;;;;2278300;60;1237;-84
2021/01/26 07:31:56;2697.00;0.01;5.29;0.00;0.00;0.62;;;;;4.00;1.00;;;;;;2276345;60;1052;-84
2021/01/26 07:47:15;585435.00;1.95;1009.08;91901.00;0.31;159.59;;;;;4.70;1.00;;;;;;2275094;61;1391;-84
2021/01/26 07:49:59;400133.00;1.33;690.03;92427.00;0.31;160.50;;;;;4.30;1.00;;;;;;2273644;61;990;-85
2021/01/26 07:52:42;780679.00;2.60;1347.45;131037.00;0.44;227.12;;;;;4.10;1.00;;;;;;2263529;61;1432;-85
2021/01/26 07:55:33;374183.00;1.25;645.43;0.00;0.00;0.62;;;;;4.20;1.00;;;;;;2261051;61;1021;-83
2021/01/26 07:58:08;257448.00;0.86;444.76;3339.00;0.01;6.41;;;;;4.10;1.00;;;;;;2260849;61;955;-85
2021/01/26 08:00:44;484035.00;1.61;834.34;0.00;0.00;0.62;;;;;4.30;1.00;;;;;;2260799;61;1977;-85
2021/01/26 08:08:26;295480.00;0.98;510.15;0.00;0.00;0.62;;;;;4.60;1.00;;;;;;2271295;61;1289;-85
2021/01/26 08:11:25;64576.00;0.22;112.39;0.00;0.00;0.62;;;;;4.70;1.00;;;;;;2269587;61;934;-86
2021/01/26 08:21:56;0.00;0.00;0.62;0.00;0.00;0.62;;;;;5.00;1.00;;;;;;2267195;61;1967;-86
2021/01/26 08:33:13;35111.00;0.12;61.43;0.00;0.00;0.62;;;;;6.40;1.00;;;;;;2420957;39;3691;31
2021/01/26 08:56:02;697847.00;2.33;1203.51;88536.00;0.30;153.78;;;;;5.80;1.00;;;;;;2275375;61;1390;-86
2021/01/26 08:58:55;414886.00;1.38;715.40;38904.00;0.13;67.99;;;;;6.20;1.00;;;;;;2263172;61;989;-87
2021/01/26 09:19:34;335808.00;1.12;579.47;0.00;0.00;0.62;;;;;6.80;1.00;;;;;;2268786;61;1987;-83
2021/01/26 09:22:31;409588.00;1.37;706.29;99472.00;0.33;172.66;;;;;6.70;1.00;;;;;;2260724;61;1483;-85
2021/01/26 09:25:17;163995.00;0.55;283.92;0.00;0.00;0.62;;;;;7.00;1.00;;;;;;2248722;61;996;-84
2021/01/26 09:28:09;99394.00;0.33;172.53;0.00;0.00;0.62;;;;;6.70;1.00;;;;;;2249183;61;1003;-86
2021/01/26 09:30:48;75220.00;0.25;130.78;0.00;0.00;0.62;;;;;6.80;1.00;;;;;;2248840;61;1035;-86
2021/01/26 10:19:14;67972.00;0.23;118.26;0.00;0.00;0.62;;;;;8.20;1.00;;;;;;2266975;61;1261;-88
2021/01/26 10:21:59;128613.00;0.43;222.94;0.00;0.00;0.62;;;;;7.70;1.00;;;;;;2248833;62;1395;-88
2021/01/26 17:46:53;65669.00;0.22;114.28;0.00;0.00;0.62;;;;;6.70;1.00;;;;;;2274610;61;1150;-84
2021/01/26 17:49:29;92249.00;0.31;160.19;0.00;0.00;0.62;;;;;6.80;1.00;;;;;;2268513;61;974;-83
2021/01/26 17:51:57;0.00;0.00;0.62;0.00;0.00;0.62;;;;;6.80;1.00;;;;;;2272468;61;1281;-84
2021/01/26 17:54:37;103780.00;0.35;180.10;28961.00;0.10;50.78;;;;;6.50;1.00;;;;;;2272562;61;1001;-82
2021/01/26 17:57:12;238.00;0.00;1.03;0.00;0.00;0.62;;;;;6.10;1.00;;;;;;2265957;61;954;-83
2021/01/26 17:59:43;89541.00;0.30;155.52;0.00;0.00;0.62;;;;;5.60;1.00;;;;;;2272519;61;1036;-83
2021/01/26 18:02:28;19552.00;0.07;34.49;0.00;0.00;0.62;;;;;5.70;1.00;;;;;;2268541;61;1940;-80
2021/01/26 18:04:59;74015.00;0.25;128.70;0.00;0.00;0.62;;;;;5.90;1.00;;;;;;2256535;61;1044;-84
2021/01/26 18:07:34;165613.00;0.55;286.71;63720.00;0.21;110.91;;;;;5.90;1.00;;;;;;2256572;61;1006;-86
2021/01/26 18:10:07;0.00;0.00;0.62;0.00;0.00;0.62;;;;;5.80;1.00;;;;;;2244784;61;994;-85
2021/01/26 18:12:38;8142.00;0.03;14.73;0.00;0.00;0.62;;;;;5.80;1.00;;;;;;2244868;61;1309;-85
2021/01/26 18:15:17;151757.00;0.51;262.84;24994.00;0.08;43.92;;;;;5.60;1.00;;;;;;2236892;61;1098;-83
2021/01/26 18:18:06;42818.00;0.14;74.76;0.00;0.00;0.62;;;;;5.40;1.00;;;;;;2233205;62;1031;-83
2021/01/26 18:20:37;32170.00;0.11;56.34;0.00;0.00;0.62;;;;;5.90;1.00;;;;;;2237829;61;1924;-83
2021/01/26 18:23:19;0.00;0.00;0.62;0.00;0.00;0.62;;;;;5.70;1.00;;;;;;2245197;61;1403;-84
2021/01/26 18:25:53;82847.00;0.28;143.95;0.00;0.00;0.62;;;;;5.40;1.00;;;;;;2248476;61;1033;-84
2021/01/26 18:28:24;0.00;0.00;0.62;0.00;0.00;0.62;;;;;5.30;1.00;;;;;;2253669;61;1118;-85
2021/01/26 18:30:59;475828.00;1.59;820.22;131453.00;0.44;227.83;;;;;5.20;1.00;;;;;;2248841;61;994;-82
2021/01/26 18:33:35;31037.00;0.10;54.38;0.00;0.00;0.62;;;;;5.00;1.00;;;;;;2248774;61;1196;-84
2021/01/26 18:46:32;72277.00;0.24;125.69;0.00;0.00;0.62;;;;;4.40;1.00;;;;;;2270802;61;1181;-83
2021/01/26 18:49:07;7921.00;0.03;14.35;0.00;0.00;0.62;;;;;4.70;1.00;;;;;;2268754;61;921;-84
2021/01/26 18:52:11;46405.00;0.15;80.97;0.00;0.00;0.62;;;;;4.80;1.00;;;;;;2263973;61;1016;-84
2021/01/26 18:54:50;40188.00;0.13;70.21;0.00;0.00;0.62;;;;;4.80;1.00;;;;;;2260098;61;1031;-85
2021/01/26 18:57:24;83566.00;0.28;145.20;16327.00;0.05;28.91;;;;;4.80;1.00;;;;;;2248274;61;989;-85
2021/01/26 19:00:01;90368.00;0.30;156.94;14616.00;0.05;25.95;;;;;4.70;1.00;;;;;;2248482;61;966;-85
2021/01/26 19:02:33;24003.00;0.08;42.20;0.00;0.00;0.62;;;;;4.80;1.00;;;;;;2238760;61;1407;-87
2021/01/26 19:05:03;31193.00;0.10;54.65;0.00;0.00;0.62;;;;;5.30;1.00;;;;;;2236783;61;955;-85
2021/01/26 19:10:04;69248.00;0.23;120.46;0.00;0.00;0.62;;;;;6.00;1.00;;;;;;2274753;61;1375;-84
2021/01/26 19:12:35;50762.00;0.17;88.50;0.00;0.00;0.62;;;;;5.80;1.00;;;;;;2271300;61;1433;-85
2021/01/26 19:15:15;211416.00;0.70;365.57;31062.00;0.10;54.42;;;;;5.80;1.00;;;;;;2265045;61;1025;-84
2021/01/26 19:17:47;8871.00;0.03;15.99;0.00;0.00;0.62;;;;;5.80;1.00;;;;;;2268840;61;976;-85
2021/01/26 19:20:20;0.00;0.00;0.62;0.00;0.00;0.62;;;;;6.00;1.00;;;;;;2261924;61;1985;-86
2021/01/26 19:23:01;0.00;0.00;0.62;0.00;0.00;0.62;;;;;5.70;1.00;;;;;;2268813;61;1338;-85
2021/01/26 19:25:32;100733.00;0.34;174.84;0.00;0.00;0.62;;;;;5.50;1.00;;;;;;2268848;61;1032;-85
2021/01/26 19:28:05;55349.00;0.18;96.44;0.00;0.00;0.62;;;;;5.50;1.00;;;;;;2268866;61;1001;-84
2021/01/26 19:30:40;21980.00;0.07;38.70;0.00;0.00;0.62;;;;;5.20;1.00;;;;;;2259914;61;917;-85
2021/01/26 19:33:12;45251.00;0.15;78.97;0.00;0.00;0.62;;;;;5.00;1.00;;;;;;2261028;61;1467;-85
2021/01/26 19:35:45;76136.00;0.25;132.36;0.00;0.00;0.62;;;;;4.90;1.00;;;;;;2261148;61;931;-86
2021/01/26 19:38:16;12331.00;0.04;21.99;0.00;0.00;0.62;;;;;5.10;1.00;;;;;;2261236;61;1013;-85
2021/01/26 19:40:47;14133.00;0.05;25.11;0.00;0.00;0.62;;;;;5.00;1.00;;;;;;2261187;61;1916;-84
2021/01/26 19:43:20;226333.00;0.75;391.24;35754.00;0.12;62.54;;;;;5.30;1.00;;;;;;2254533;61;1479;-85
2021/01/26 19:45:53;46757.00;0.16;81.58;0.00;0.00;0.62;;;;;5.80;1.00;;;;;;2254251;61;1086;-84
2021/01/26 19:48:22;346039.00;1.15;597.05;0.00;0.00;0.62;;;;;5.80;1.00;;;;;;2254461;61;1013;-83
2021/01/26 19:51:08;6617.00;0.02;12.09;0.00;0.00;0.62;;;;;6.00;1.00;;;;;;2253106;61;971;-84
2021/01/26 19:53:38;0.00;0.00;0.62;0.00;0.00;0.62;;;;;6.00;1.00;;;;;;2252971;61;1400;-84
2021/01/26 19:56:22;235371.00;0.78;406.79;4972.00;0.02;9.24;;;;;6.10;1.00;;;;;;2260771;61;1062;-84
2021/01/26 19:58:55;8320.00;0.03;15.04;0.00;0.00;0.62;;;;;6.50;1.00;;;;;;2261036;61;1029;-84
2021/01/26 20:01:26;0.00;0.00;0.62;0.00;0.00;0.62;;;;;6.50;1.00;;;;;;2261036;61;2008;-81
2021/01/26 20:03:54;70661.00;0.24;122.90;0.00;0.00;0.62;;;;;6.20;1.00;;;;;;2261128;61;1372;-84
2021/01/26 20:06:32;149071.00;0.50;258.21;0.00;0.00;0.62;;;;;5.80;1.00;;;;;;2261096;61;941;-85
2021/01/26 20:09:12;42732.00;0.14;74.61;0.00;0.00;0.62;;;;;6.30;1.00;;;;;;2258791;61;1031;-85
2021/01/26 20:11:47;124362.00;0.41;215.61;0.00;0.00;0.62;;;;;6.80;1.00;;;;;;2265404;61;1128;-84
2021/01/26 20:14:23;116358.00;0.39;201.80;32033.00;0.11;56.10;;;;;6.70;1.00;;;;;;2260700;61;965;-84
2021/01/26 20:17:00;0.00;0.00;0.62;0.00;0.00;0.62;;;;;6.80;1.00;;;;;;2248811;61;1071;-84
2021/01/26 20:19:36;0.00;0.00;0.62;0.00;0.00;0.62;;;;;6.60;1.00;;;;;;2251050;61;1087;-85
2021/01/26 20:22:15;18194.00;0.06;32.14;0.00;0.00;0.62;;;;;6.40;1.00;;;;;;2246038;61;2008;-84
2021/01/26 20:24:51;274296.00;0.91;473.73;75567.00;0.25;131.38;;;;;6.30;1.00;;;;;;2240903;62;982;-84
2021/01/26 20:27:25;462652.00;1.54;797.55;88419.00;0.29;153.58;;;;;6.70;1.00;;;;;;2236982;62;1066;-84
2021/01/26 20:29:58;401074.00;1.34;691.65;89655.00;0.30;155.71;;;;;7.40;1.00;;;;;;2237011;62;1069;-84
2021/01/26 20:32:28;431461.00;1.44;743.90;88551.00;0.30;153.81;;;;;7.40;1.00;;;;;;2241448;62;1442;-85
2021/01/26 20:35:05;328586.00;1.10;567.06;86286.00;0.29;149.89;;;;;7.30;1.00;;;;;;2240443;61;1094;-84
2021/01/26 20:37:40;362222.00;1.21;624.87;91266.00;0.30;158.49;;;;;7.50;1.00;;;;;;2248936;61;1002;-85
2021/01/26 20:40:27;256721.00;0.86;443.51;87252.00;0.29;151.56;;;;;7.40;1.00;;;;;;2248730;61;1915;-85
2021/01/26 20:42:55;568095.00;1.89;979.16;85284.00;0.28;148.16;;;;;6.30;1.00;;;;;;2253236;61;1393;-85
2021/01/26 20:45:28;347799.00;1.16;600.08;86914.00;0.29;150.98;;;;;6.30;1.00;;;;;;2255315;61;1017;-83
2021/01/26 20:48:07;0.00;0.00;0.62;0.00;0.00;0.62;;;;;6.20;1.00;;;;;;2260570;61;959;-84
2021/01/26 20:50:41;0.00;0.00;0.62;0.00;0.00;0.62;;;;;6.00;1.00;;;;;;2258937;61;1032;-84
2021/01/26 20:53:19;266810.00;0.89;460.86;32255.00;0.11;56.49;;;;;5.50;1.00;;;;;;2248653;61;1440;-84
2021/01/26 20:55:55;367419.00;1.22;633.80;131632.00;0.44;228.14;;;;;5.10;1.00;;;;;;2248764;61;1147;-84
2021/01/26 20:58:26;317656.00;1.06;548.27;91260.00;0.30;158.48;;;;;5.10;1.00;;;;;;2248872;61;1013;-84
2021/01/26 21:00:59;354993.00;1.18;612.44;90587.00;0.30;157.32;;;;;4.90;1.00;;;;;;2248693;61;1983;-84
2021/01/26 21:03:27;204297.00;0.68;353.32;59500.00;0.20;103.61;;;;;5.10;1.00;;;;;;2245457;61;1363;-85
2021/01/26 21:06:10;35321.00;0.12;61.79;0.00;0.00;0.62;;;;;5.30;1.00;;;;;;2248715;61;1034;-84
2021/01/26 21:08:46;280508.00;0.94;484.41;89123.00;0.30;154.79;;;;;5.60;1.00;;;;;;2246658;61;953;-83
2021/01/26 21:11:14;342014.00;1.14;590.14;76436.00;0.25;132.88;;;;;5.70;1.00;;;;;;2250386;61;1057;-82
2021/01/26 21:13:53;551037.00;1.84;949.75;83774.00;0.28;145.56;;;;;5.90;1.00;;;;;;2257306;61;1783;-83
2021/01/26 21:16:26;473291.00;1.58;815.85;85956.00;0.29;149.32;;;;;5.80;1.00;;;;;;2260538;61;974;-84
2021/01/26 21:18:59;829582.00;2.77;1432.76;146261.00;0.49;253.36;;;;;5.80;1.00;;;;;;2257306;61;1043;-82
2021/01/26 21:21:29;590524.00;1.97;1017.86;93315.00;0.31;162.03;;;;;5.80;1.00;;;;;;2260647;61;2016;-84
2021/01/26 21:24:04;741020.00;2.47;1278.45;85884.00;0.29;149.20;;;;;5.90;1.00;;;;;;2260540;61;1496;-83
2021/01/26 21:26:32;651033.00;2.17;1122.42;86693.00;0.29;150.60;;;;;6.10;1.00;;;;;;2262969;61;1120;-85
2021/01/26 21:31:59;613326.00;2.04;1057.24;86675.00;0.29;150.57;;;;;5.30;1.00;;;;;;2252913;61;1346;-84
2021/01/26 21:34:50;696756.00;2.32;1201.61;134477.00;0.45;233.05;;;;;5.30;1.00;;;;;;2246295;61;971;-83
2021/01/26 21:37:21;140777552.00;469.26;113072880.00;0.00;0.00;0.62;;;;;5.30;1.00;;;;;;2245917;61;991;-85
2021/01/26 21:39:50;155227.00;0.52;268.82;0.00;0.00;0.62;;;;;5.10;1.00;;;;;;2244869;61;1053;-84
2021/01/26 21:42:24;420868.00;1.40;725.68;0.00;0.00;0.62;;;;;5.30;1.00;;;;;;2244473;61;2011;-82
2021/01/26 21:45:00;415606.00;1.39;716.64;90156.00;0.30;156.58;;;;;5.30;1.00;;;;;;2241689;61;995;-84
2021/01/26 21:47:33;677257.00;2.26;1167.82;129321.00;0.43;224.16;;;;;5.70;1.00;;;;;;2242218;61;986;-83
2021/01/26 21:50:13;468078.00;1.56;806.88;92223.00;0.31;160.15;;;;;5.40;1.00;;;;;;2240690;61;1041;-84
2021/01/26 21:52:51;336073.00;1.12;579.92;85465.00;0.28;148.48;;;;;5.80;1.00;;;;;;2236844;61;1438;-83
2021/01/26 21:55:47;227648.00;0.76;393.50;90850.00;0.30;157.78;;;;;5.40;1.00;;;;;;2236647;62;1018;-86
2021/01/26 21:58:29;260382.00;0.87;449.81;86243.00;0.29;149.82;;;;;5.40;1.00;;;;;;2227303;62;1013;-82
2021/01/26 22:01:18;3302.00;0.01;6.34;0.00;0.00;0.62;;;;;5.40;1.00;;;;;;2233547;61;1994;-84
2021/01/26 22:07:26;207339.00;0.69;358.56;83890.00;0.28;145.76;;;;;5.30;1.00;;;;;;2225086;62;1041;-84
2021/01/26 22:13:08;257999.00;0.86;445.71;82577.00;0.28;143.49;;;;;5.60;1.00;;;;;;2223401;62;1449;-83
2021/01/26 22:15:57;459278.00;1.53;791.74;27877.00;0.09;48.91;;;;;5.50;1.00;;;;;;2228298;62;1025;-84
2021/01/26 22:18:47;61261.00;0.20;106.66;0.00;0.00;0.62;;;;;5.20;1.00;;;;;;2229165;62;1001;-83
2021/01/26 22:21:27;246418.00;0.82;425.79;36225.00;0.12;63.36;;;;;4.90;1.00;;;;;;2228684;62;1990;-84
2021/01/26 22:23:59;81853.00;0.27;142.24;0.00;0.00;0.62;;;;;4.70;1.00;;;;;;2225314;62;1289;-84
2021/01/26 22:26:31;61691.00;0.21;107.40;0.00;0.00;0.62;;;;;4.60;1.00;;;;;;2228833;62;1066;-82
2021/01/26 22:34:58;72838.00;0.24;126.66;0.00;0.00;0.62;;;;;5.40;1.00;;;;;;2213118;62;1043;-82
2021/01/26 22:37:31;18984.00;0.06;33.51;0.00;0.00;0.62;;;;;5.60;1.00;;;;;;2219489;62;1061;-82
2021/01/26 22:40:12;57443.00;0.19;100.06;0.00;0.00;0.62;;;;;5.60;1.00;;;;;;2225506;62;1043;-84
2021/01/26 22:42:48;0.00;0.00;0.62;0.00;0.00;0.62;;;;;5.60;1.00;;;;;;2236672;61;1999;-81
2021/01/26 22:45:40;114333.00;0.38;198.31;0.00;0.00;0.62;;;;;5.90;1.00;;;;;;2251209;61;1027;-84
2021/01/26 22:48:20;78399.00;0.26;136.27;0.00;0.00;0.62;;;;;6.20;1.00;;;;;;2259737;61;1113;-84
2021/01/26 22:51:25;0.00;0.00;0.62;0.00;0.00;0.62;;;;;6.20;1.00;;;;;;2260078;61;1015;-83
2021/01/26 22:54:15;116491.00;0.39;202.03;0.00;0.00;0.62;;;;;6.20;1.00;;;;;;2260135;61;1684;-84
2021/01/26 22:56:57;120465.00;0.40;208.88;0.00;0.00;0.62;;;;;6.40;1.00;;;;;;2253468;61;1069;-84
2021/01/26 22:59:59;12884.00;0.04;22.95;0.00;0.00;0.62;;;;;6.80;1.00;;;;;;2253610;61;998;-84
